Time;durP1;ratioP1;P1;durP2;ratioP2;P2;SDS_P1;SDS_P2;PMS_P1;PMS_P2;Temp;Humidity;BMP_temperature;BMP_pressure;BME280_temperature;BME280_humidity;BME280_pressure;Samples;Min_cycle;Max_cycle;Signal;HPM_P1;HPM_P2
2022/03/04 00:00:23;;;;;;;24.87;14.03;;;;;;;2.10;61.69;101857.00;5071560;28;20381;-70
2022/03/04 00:02:49;;;;;;;22.70;14.17;;;;;;;2.08;61.78;101841.09;5071870;28;20051;-70
2022/03/04 00:05:14;;;;;;;22.83;14.20;;;;;;;2.08;61.64;101859.78;5071012;28;20028;-71
2022/03/04 00:07:39;;;;;;;22.30;13.87;;;;;;;2.03;61.95;101860.16;5071420;28;20074;-70
2022/03/04 00:10:05;;;;;;;22.23;13.57;;;;;;;2.00;61.73;101863.13;5070923;28;20033;-70
2022/03/04 00:12:30;;;;;;;23.47;13.67;;;;;;;1.98;61.90;101864.22;5070508;28;20070;-70
2022/03/04 00:14:56;;;;;;;22.90;13.70;;;;;;;1.94;62.18;101870.81;5071257;28;20050;-70
2022/03/04 00:17:21;;;;;;;23.20;14.07;;;;;;;1.92;62.03;101870.06;5067762;28;20070;-70
2022/03/04 00:19:46;;;;;;;21.73;13.53;;;;;;;1.87;62.13;101873.13;5070983;28;20059;-70
2022/03/04 00:22:14;;;;;;;22.67;13.80;;;;;;;1.84;62.46;101876.09;5071279;28;20042;-71
2022/03/04 00:24:39;;;;;;;23.33;14.80;;;;;;;1.79;62.73;101880.97;5071277;28;20519;-70
2022/03/04 00:27:05;;;;;;;24.20;14.93;;;;;;;1.75;63.02;101877.69;5069775;28;20889;-76
2022/03/04 00:29:30;;;;;;;23.03;13.83;;;;;;;1.69;62.57;101872.88;5071743;28;20032;-77
2022/03/04 00:31:55;;;;;;;23.43;14.37;;;;;;;1.62;63.77;101877.88;5071205;28;20050;-77
2022/03/04 00:34:21;;;;;;;23.60;14.50;;;;;;;1.60;63.44;101885.16;5071048;28;20158;-76
2022/03/04 00:36:46;;;;;;;22.50;14.03;;;;;;;1.54;63.64;101879.47;5068877;28;20764;-76
2022/03/04 00:39:13;;;;;;;25.60;15.07;;;;;;;1.47;64.32;101885.34;5071353;28;21551;-77
2022/03/04 00:41:39;;;;;;;24.13;14.73;;;;;;;1.42;64.56;101887.53;5071202;28;20063;-76
2022/03/04 00:44:04;;;;;;;23.03;13.63;;;;;;;1.37;64.98;101884.38;5071040;28;21035;-77
2022/03/04 00:46:30;;;;;;;21.77;13.57;;;;;;;1.34;64.59;101884.66;5070927;28;20453;-77
2022/03/04 00:48:56;;;;;;;25.13;15.27;;;;;;;1.32;64.57;101881.25;5070679;28;20036;-77
2022/03/04 00:51:21;;;;;;;24.93;14.90;;;;;;;1.28;64.67;101875.31;5071179;28;20070;-70
2022/03/04 00:53:46;;;;;;;26.17;14.77;;;;;;;1.26;64.86;101881.75;5070944;28;20118;-70
2022/03/04 00:56:12;;;;;;;24.50;14.63;;;;;;;1.21;65.01;101878.59;5070331;28;20131;-70
2022/03/04 00:58:39;;;;;;;23.17;14.20;;;;;;;1.18;65.15;101882.38;5070727;28;20333;-70
2022/03/04 01:01:06;;;;;;;23.17;14.23;;;;;;;1.16;65.09;101882.50;5070585;28;20295;-70
2022/03/04 01:03:31;;;;;;;24.40;14.47;;;;;;;1.14;65.03;101887.13;5071130;28;21106;-70
2022/03/04 01:06:01;;;;;;;24.27;14.83;;;;;;;1.11;65.36;101882.00;5070153;28;20304;-70
2022/03/04 01:08:26;;;;;;;24.23;14.03;;;;;;;1.10;65.62;101887.47;5071516;28;20036;-70
2022/03/04 01:10:52;;;;;;;24.53;15.17;;;;;;;0.99;65.47;101883.88;5070356;28;20403;-70
2022/03/04 01:13:17;;;;;;;24.83;15.20;;;;;;;0.95;65.76;101887.75;5071559;28;21022;-76
2022/03/04 01:15:43;;;;;;;25.43;15.03;;;;;;;0.96;66.04;101885.94;5070703;28;20048;-76
2022/03/04 01:18:09;;;;;;;25.63;15.03;;;;;;;0.91;66.73;101894.31;5070455;28;20385;-76
2022/03/04 01:20:34;;;;;;;25.27;14.67;;;;;;;0.87;66.27;101897.34;5070820;28;20078;-76
2022/03/04 01:23:00;;;;;;;25.10;15.27;;;;;;;0.86;66.44;101900.97;5070483;28;20523;-77
2022/03/04 01:25:26;;;;;;;25.33;14.77;;;;;;;0.82;66.12;101890.53;5070648;28;20042;-76
2022/03/04 01:27:52;;;;;;;25.03;15.43;;;;;;;0.76;66.83;101884.84;5068151;28;20479;-77
2022/03/04 01:30:18;;;;;;;24.33;15.20;;;;;;;0.70;66.98;101880.84;5067327;28;20322;-76
2022/03/04 01:32:44;;;;;;;23.80;14.80;;;;;;;0.72;67.05;101883.41;5069852;28;21467;-76
2022/03/04 01:35:10;;;;;;;24.53;14.90;;;;;;;0.66;66.54;101874.06;5070456;28;20305;-76
2022/03/04 01:37:35;;;;;;;27.20;16.27;;;;;;;0.64;67.72;101870.66;5070157;28;20419;-76
2022/03/04 01:40:05;;;;;;;25.13;15.07;;;;;;;0.61;67.31;101881.56;5070347;28;20040;-76
2022/03/04 01:42:31;;;;;;;23.60;14.50;;;;;;;0.56;67.73;101873.94;5070533;28;20035;-70
2022/03/04 01:44:56;;;;;;;25.53;15.60;;;;;;;0.54;67.71;101875.88;5073321;28;22395;-70
2022/03/04 01:47:22;;;;;;;27.03;15.43;;;;;;;0.54;67.60;101875.03;5073756;28;20687;-70
2022/03/04 01:49:48;;;;;;;25.37;15.70;;;;;;;0.47;68.53;101869.34;5073147;28;20044;-70
2022/03/04 01:52:14;;;;;;;25.30;15.47;;;;;;;0.40;68.97;101873.47;5073142;28;21442;-70
2022/03/04 01:54:39;;;;;;;25.47;14.83;;;;;;;0.36;69.00;101877.34;5074169;28;20040;-70
2022/03/04 01:57:05;;;;;;;26.20;16.03;;;;;;;0.33;68.75;101883.75;5073060;28;20036;-70
2022/03/04 01:59:31;;;;;;;29.47;16.70;;;;;;;0.27;69.46;101885.06;5073673;28;20506;-70
2022/03/04 02:01:56;;;;;;;24.40;15.10;;;;;;;0.25;69.99;101889.66;5073145;28;20039;-70
2022/03/04 02:04:24;;;;;;;25.87;15.77;;;;;;;0.22;69.37;101889.91;5074116;28;20063;-70
2022/03/04 02:06:50;;;;;;;27.10;15.87;;;;;;;0.19;69.60;101882.16;5073167;28;20101;-70
2022/03/04 02:09:16;;;;;;;26.20;15.93;;;;;;;0.15;70.14;101894.00;5073859;28;20700;-70
2022/03/04 02:11:43;;;;;;;27.70;16.53;;;;;;;0.10;70.13;101878.38;5073426;28;20043;-70
2022/03/04 02:14:10;;;;;;;26.70;16.13;;;;;;;0.09;70.29;101883.81;5073885;28;20044;-70
2022/03/04 02:16:48;;;;;;;27.73;15.90;;;;;;;0.07;70.42;101873.28;5070848;28;20812;-70
2022/03/04 02:19:15;;;;;;;27.20;16.37;;;;;;;0.07;70.61;101878.63;5073438;28;20302;-70
2022/03/04 02:21:58;;;;;;;28.67;16.20;;;;;;;0.04;69.86;101876.19;5073008;28;20349;-70
2022/03/04 02:24:25;;;;;;;27.07;16.57;;;;;;;0.00;70.91;101874.72;5072428;28;20314;-70
2022/03/04 02:26:52;;;;;;;27.37;16.67;;;;;;;0.01;70.73;101880.91;5072639;28;20289;-70
2022/03/04 02:29:19;;;;;;;26.47;16.23;;;;;;;0.00;71.04;101874.72;5073449;28;20373;-70
2022/03/04 02:31:45;;;;;;;27.43;16.63;;;;;;;-0.01;70.97;101873.03;5073281;28;20350;-70
2022/03/04 02:34:10;;;;;;;27.07;16.20;;;;;;;-0.01;70.97;101873.84;5073324;28;20290;-70
2022/03/04 02:36:37;;;;;;;26.57;16.70;;;;;;;-0.02;70.92;101873.97;5072796;28;20027;-70
2022/03/04 02:39:04;;;;;;;27.40;16.50;;;;;;;-0.05;71.03;101874.22;5072818;28;20028;-70
2022/03/04 02:41:30;;;;;;;27.17;17.03;;;;;;;-0.07;71.48;101862.81;5071019;28;20294;-76
2022/03/04 02:43:55;;;;;;;27.83;16.93;;;;;;;-0.06;71.71;101864.53;5072688;28;20326;-76
2022/03/04 02:46:20;;;;;;;25.83;16.40;;;;;;;-0.17;71.40;101866.19;5072663;28;20456;-77
2022/03/04 02:48:46;;;;;;;28.23;16.93;;;;;;;-0.17;71.42;101868.84;5072581;28;20028;-76
2022/03/04 02:51:11;;;;;;;28.43;16.80;;;;;;;-0.20;71.68;101865.56;5072585;28;20032;-76
2022/03/04 02:53:37;;;;;;;28.07;16.53;;;;;;;-0.20;71.43;101870.91;5072719;28;20115;-76
2022/03/04 02:56:02;;;;;;;27.57;17.03;;;;;;;-0.24;72.01;101867.63;5072160;28;20530;-76
2022/03/04 02:58:28;;;;;;;28.87;17.37;;;;;;;-0.29;71.64;101860.94;5072906;28;20024;-76
2022/03/04 03:00:53;;;;;;;26.80;17.20;;;;;;;-0.32;72.19;101866.50;5087878;28;20024;-76
2022/03/04 03:03:19;;;;;;;27.73;17.30;;;;;;;-0.37;72.40;101862.38;5072154;28;20054;-76
2022/03/04 03:05:44;;;;;;;27.50;17.10;;;;;;;-0.40;72.24;101864.41;5071823;28;20413;-76
2022/03/04 03:08:10;;;;;;;29.67;18.00;;;;;;;-0.41;72.49;101862.69;5067523;28;20506;-76
2022/03/04 03:10:36;;;;;;;28.03;17.23;;;;;;;-0.48;72.85;101866.78;5072619;28;20027;-76
2022/03/04 03:13:01;;;;;;;29.83;17.63;;;;;;;-0.51;72.51;101873.19;5072065;28;20314;-76
2022/03/04 03:15:27;;;;;;;27.57;16.30;;;;;;;-0.53;73.03;101867.13;5053217;28;20043;-76
2022/03/04 03:17:53;;;;;;;27.70;16.57;;;;;;;-0.61;73.58;101869.50;5072109;28;20032;-76
2022/03/04 03:20:18;;;;;;;28.77;17.27;;;;;;;-0.64;73.94;101867.94;5069339;28;20535;-76
2022/03/04 03:22:44;;;;;;;30.37;17.77;;;;;;;-0.69;74.02;101875.41;5071773;28;20063;-76
2022/03/04 03:25:10;;;;;;;28.37;17.00;;;;;;;-0.71;73.74;101874.66;5072577;28;20056;-70
2022/03/04 03:27:35;;;;;;;30.60;17.73;;;;;;;-0.81;74.19;101873.66;5072225;28;20396;-70
2022/03/04 03:30:03;;;;;;;31.23;17.73;;;;;;;-0.86;74.12;101876.63;5071562;28;20024;-70
2022/03/04 03:32:28;;;;;;;30.30;17.80;;;;;;;-0.87;74.28;101875.78;5071580;28;20035;-70
2022/03/04 03:34:53;;;;;;;30.30;17.97;;;;;;;-0.99;74.64;101868.72;5071770;28;20302;-70
2022/03/04 03:37:19;;;;;;;28.40;17.87;;;;;;;-0.96;75.06;101872.97;5071333;28;20786;-70
2022/03/04 03:39:44;;;;;;;29.67;17.70;;;;;;;-1.00;75.23;101867.00;5070356;28;20044;-70
2022/03/04 03:42:09;;;;;;;29.77;17.67;;;;;;;-1.05;75.20;101875.31;5071429;28;20040;-70
2022/03/04 03:44:35;;;;;;;32.37;17.97;;;;;;;-1.09;75.74;101880.94;5071602;28;20051;-70
2022/03/04 03:47:00;;;;;;;31.30;17.97;;;;;;;-1.17;75.14;101886.81;5071171;28;20167;-70
2022/03/04 03:49:26;;;;;;;30.10;17.73;;;;;;;-1.18;75.50;101877.16;5071960;28;20183;-70
2022/03/04 03:51:51;;;;;;;32.17;18.43;;;;;;;-1.15;75.74;101878.75;5071606;28;20040;-70
2022/03/04 03:54:17;;;;;;;30.60;18.33;;;;;;;-1.19;75.90;101872.78;5068310;28;20620;-70
2022/03/04 03:56:43;;;;;;;31.93;18.57;;;;;;;-1.16;75.81;101885.03;5068496;28;20151;-70
2022/03/04 03:59:08;;;;;;;32.50;19.13;;;;;;;-1.17;75.91;101881.50;5066915;28;20050;-70
2022/03/04 04:01:34;;;;;;;30.73;18.23;;;;;;;-1.19;76.06;101880.78;5068930;28;20490;-70
2022/03/04 04:04:00;;;;;;;29.47;17.73;;;;;;;-1.16;76.37;101879.72;5070983;28;20029;-70
2022/03/04 04:06:25;;;;;;;32.00;19.63;;;;;;;-1.16;76.34;101883.19;5071606;28;20042;-70
2022/03/04 04:08:51;;;;;;;31.80;18.30;;;;;;;-1.15;76.89;101886.72;5070877;28;20066;-70
2022/03/04 04:11:16;;;;;;;32.47;19.20;;;;;;;-1.15;76.45;101884.06;5069291;28;20032;-70
2022/03/04 04:13:42;;;;;;;32.20;19.40;;;;;;;-1.15;76.36;101884.06;5071000;28;20074;-70
2022/03/04 04:16:07;;;;;;;33.73;18.87;;;;;;;-1.14;76.62;101891.06;5071514;28;20074;-76
2022/03/04 04:18:33;;;;;;;33.03;19.47;;;;;;;-1.16;76.78;101899.16;5071773;28;20040;-76
2022/03/04 04:20:58;;;;;;;31.93;19.43;;;;;;;-1.18;76.99;101893.13;5071025;28;20040;-76
2022/03/04 04:23:24;;;;;;;32.50;19.53;;;;;;;-1.18;77.11;101895.78;5071404;28;20032;-76
2022/03/04 04:25:49;;;;;;;30.20;19.10;;;;;;;-1.17;76.93;101893.94;5071446;28;20119;-76
2022/03/04 04:28:14;;;;;;;34.57;19.33;;;;;;;-1.17;76.82;101892.13;5070575;28;20032;-76
2022/03/04 04:30:40;;;;;;;34.27;20.50;;;;;;;-1.19;77.07;101897.56;5068355;28;20205;-76
2022/03/04 04:33:05;;;;;;;32.83;19.00;;;;;;;-1.18;77.28;101901.09;5071388;28;20036;-76
2022/03/04 04:35:30;;;;;;;32.70;19.70;;;;;;;-1.18;77.76;101898.44;5070965;28;20435;-76
2022/03/04 04:37:56;;;;;;;32.23;19.27;;;;;;;-1.21;77.67;101895.97;5070264;28;20028;-76
2022/03/04 04:40:22;;;;;;;34.43;19.70;;;;;;;-1.19;78.20;101905.53;5070704;28;20404;-76
2022/03/04 04:42:48;;;;;;;33.57;20.20;;;;;;;-1.16;77.57;101900.97;5071070;28;20316;-76
2022/03/04 04:45:13;;;;;;;33.07;19.47;;;;;;;-1.16;77.43;101900.97;5071135;28;20043;-76
2022/03/04 04:47:39;;;;;;;34.27;19.63;;;;;;;-1.17;77.60;101901.94;5070990;28;20519;-76
2022/03/04 04:50:04;;;;;;;33.80;20.37;;;;;;;-1.21;77.79;101895.97;5071281;28;20036;-76
2022/03/04 04:52:30;;;;;;;33.27;20.20;;;;;;;-1.20;77.61;101898.53;5070337;28;20034;-70
2022/03/04 04:54:55;;;;;;;34.37;20.77;;;;;;;-1.22;77.45;101895.13;5070822;28;20494;-70
2022/03/04 04:57:21;;;;;;;34.73;20.40;;;;;;;-1.24;77.84;101897.06;5070823;28;20081;-70
2022/03/04 04:59:46;;;;;;;37.67;20.60;;;;;;;-1.26;78.10;101887.50;5070962;28;20072;-76
2022/03/04 05:02:11;;;;;;;31.97;20.10;;;;;;;-1.26;77.66;101898.97;5070743;28;20032;-76
2022/03/04 05:04:37;;;;;;;32.50;19.57;;;;;;;-1.31;77.91;101897.59;5071114;28;20109;-76
2022/03/04 05:07:03;;;;;;;33.93;19.97;;;;;;;-1.30;78.39;101900.16;5068623;28;20036;-76
2022/03/04 05:09:28;;;;;;;33.17;19.57;;;;;;;-1.32;78.13;101904.75;5071041;28;20106;-76
2022/03/04 05:11:54;;;;;;;37.73;20.10;;;;;;;-1.32;78.03;101901.22;5070957;28;20035;-76
2022/03/04 05:14:19;;;;;;;35.23;20.63;;;;;;;-1.34;77.70;101893.34;5071474;28;20472;-76
2022/03/04 05:16:44;;;;;;;35.13;20.10;;;;;;;-1.36;77.70;101895.25;5070479;28;20062;-70
2022/03/04 05:19:10;;;;;;;35.67;21.10;;;;;;;-1.39;78.06;101892.81;5072754;28;20605;-70
2022/03/04 05:21:35;;;;;;;35.40;20.43;;;;;;;-1.40;77.94;101896.41;5074450;28;20052;-70
2022/03/04 05:24:02;;;;;;;34.73;20.50;;;;;;;-1.41;78.26;101898.25;5074192;28;20051;-70
2022/03/04 05:26:30;;;;;;;32.80;19.33;;;;;;;-1.45;78.27;101902.06;5074558;28;20040;-70
2022/03/04 05:28:57;;;;;;;36.70;21.00;;;;;;;-1.44;78.24;101906.44;5073932;28;20285;-70
2022/03/04 05:31:22;;;;;;;31.97;19.60;;;;;;;-1.43;78.03;101901.97;5074597;28;20293;-70
2022/03/04 05:33:48;;;;;;;35.50;20.67;;;;;;;-1.44;77.97;101898.47;5074057;28;20777;-70
2022/03/04 05:36:14;;;;;;;36.13;21.37;;;;;;;-1.42;77.90;101912.47;5074249;28;20036;-70
2022/03/04 05:38:39;;;;;;;33.17;20.10;;;;;;;-1.41;77.92;101894.75;5074059;28;20032;-70
2022/03/04 05:41:05;;;;;;;35.17;20.70;;;;;;;-1.38;77.46;101906.00;5073607;28;20301;-70
2022/03/04 05:43:30;;;;;;;35.43;21.30;;;;;;;-1.38;77.54;101906.00;5072740;28;20139;-70
2022/03/04 05:45:56;;;;;;;34.20;20.27;;;;;;;-1.33;77.35;101918.09;5074236;28;20036;-70
2022/03/04 05:48:21;;;;;;;40.03;21.70;;;;;;;-1.36;77.30;101911.19;5073908;28;20032;-70
2022/03/04 05:50:47;;;;;;;36.87;21.00;;;;;;;-1.33;77.11;101918.97;5074633;28;20036;-70
2022/03/04 05:53:12;;;;;;;36.60;21.13;;;;;;;-1.30;77.17;101918.75;5070894;28;20059;-70
2022/03/04 05:55:38;;;;;;;37.63;21.53;;;;;;;-1.26;77.16;101922.91;5074698;28;20384;-70
2022/03/04 05:58:03;;;;;;;34.83;20.50;;;;;;;-1.24;77.23;101934.28;5073330;28;20332;-69
2022/03/04 06:00:29;;;;;;;36.00;20.80;;;;;;;-1.28;77.06;101930.16;5074319;28;20140;-70
2022/03/04 06:02:54;;;;;;;35.33;20.57;;;;;;;-1.26;77.49;101946.84;5072948;28;20067;-70
2022/03/04 06:05:21;;;;;;;35.10;20.73;;;;;;;-1.22;77.19;101948.31;5073903;28;20042;-76
2022/03/04 06:07:46;;;;;;;35.70;21.27;;;;;;;-1.20;77.26;101946.41;5068848;28;20133;-76
2022/03/04 06:10:12;;;;;;;34.10;20.93;;;;;;;-1.16;77.42;101951.50;5074129;28;20297;-76
2022/03/04 06:12:37;;;;;;;34.37;20.57;;;;;;;-1.16;77.12;101955.00;5073633;28;20040;-76
2022/03/04 06:15:03;;;;;;;36.30;20.70;;;;;;;-1.17;77.55;101945.31;5073861;28;20499;-76
2022/03/04 06:17:28;;;;;;;36.17;20.93;;;;;;;-1.13;77.36;101949.50;5073642;28;20510;-76
2022/03/04 06:19:53;;;;;;;34.67;21.53;;;;;;;-1.08;77.45;101943.84;5073153;28;20036;-75
2022/03/04 06:22:20;;;;;;;37.87;22.17;;;;;;;-1.07;77.49;101945.56;5073143;28;20461;-76
2022/03/04 06:24:46;;;;;;;37.07;22.30;;;;;;;-1.03;77.33;101947.03;5073484;28;20478;-76
2022/03/04 06:27:11;;;;;;;38.67;21.87;;;;;;;-0.99;77.45;101943.19;5074281;28;20294;-76
2022/03/04 06:29:37;;;;;;;38.13;21.93;;;;;;;-0.99;77.34;101948.50;5072749;28;20293;-76
2022/03/04 06:32:02;;;;;;;37.03;22.20;;;;;;;-0.97;77.41;101949.25;5072674;28;20138;-76
2022/03/04 06:34:28;;;;;;;35.17;21.57;;;;;;;-0.99;77.17;101943.19;5073103;28;20403;-76
2022/03/04 06:36:53;;;;;;;38.70;21.60;;;;;;;-0.98;77.19;101944.91;5070671;28;20090;-76
2022/03/04 06:39:19;;;;;;;36.67;20.93;;;;;;;-0.99;77.64;101948.50;5068925;28;20032;-76
2022/03/04 06:41:44;;;;;;;37.70;21.53;;;;;;;-0.99;77.38;101948.50;5071190;28;20067;-70
2022/03/04 06:44:09;;;;;;;39.30;22.20;;;;;;;-0.97;77.66;101951.91;5072878;28;20308;-70
2022/03/04 06:46:35;;;;;;;36.73;21.93;;;;;;;-0.93;77.35;101955.22;5072518;28;20070;-70
2022/03/04 06:49:00;;;;;;;35.77;21.60;;;;;;;-0.92;77.64;101960.41;5071934;28;20028;-70
2022/03/04 06:51:26;;;;;;;36.63;21.27;;;;;;;-0.91;77.54;101962.13;5069614;28;20040;-70
2022/03/04 06:53:52;;;;;;;38.07;22.63;;;;;;;-0.86;77.44;101967.97;5072274;28;20064;-70
2022/03/04 06:56:17;;;;;;;37.77;22.17;;;;;;;-0.80;77.39;101965.81;5073914;28;21049;-70
2022/03/04 06:58:43;;;;;;;38.43;21.87;;;;;;;-0.79;77.44;101973.72;5072276;28;20040;-70
2022/03/04 07:01:09;;;;;;;38.70;22.67;;;;;;;-0.72;77.25;101976.75;5072923;28;20867;-70
2022/03/04 07:03:34;;;;;;;37.13;22.67;;;;;;;-0.71;77.15;101970.47;5072078;28;20294;-70
2022/03/04 07:06:00;;;;;;;37.17;22.23;;;;;;;-0.61;77.21;101987.50;5072588;28;20044;-70
2022/03/04 07:08:25;;;;;;;39.90;22.50;;;;;;;-0.49;77.30;101984.91;5072156;28;20884;-71
2022/03/04 07:10:51;;;;;;;38.33;22.27;;;;;;;-0.41;76.96;101986.06;5071832;28;20036;-76
2022/03/04 07:13:16;;;;;;;40.40;23.03;;;;;;;-0.28;76.48;101991.31;5073438;28;20032;-76
2022/03/04 07:15:42;;;;;;;39.10;22.47;;;;;;;-0.16;76.23;101994.91;5068477;28;20060;-76
2022/03/04 07:18:08;;;;;;;37.43;22.40;;;;;;;-0.02;75.75;101997.38;5073446;28;20479;-76
2022/03/04 07:20:34;;;;;;;38.97;22.90;;;;;;;0.18;75.30;101997.72;5073304;28;20352;-76
2022/03/04 07:23:00;;;;;;;38.33;21.63;;;;;;;0.32;74.59;101999.34;5073495;28;20590;-76
2022/03/04 07:25:26;;;;;;;38.03;22.33;;;;;;;0.49;74.30;101990.03;5073836;28;20906;-71
2022/03/04 07:27:51;;;;;;;37.57;22.00;;;;;;;0.62;73.44;101990.81;5073283;28;20298;-71
2022/03/04 07:30:17;;;;;;;35.60;21.57;;;;;;;0.83;72.69;102006.97;5073393;28;21834;-71
2022/03/04 07:32:43;;;;;;;37.27;21.40;;;;;;;0.97;72.13;102007.72;5073889;28;20055;-71
2022/03/04 07:35:10;;;;;;;38.53;22.23;;;;;;;1.10;71.31;101999.59;5072418;28;20070;-71
2022/03/04 07:37:36;;;;;;;34.30;22.00;;;;;;;1.27;71.27;102009.78;5073030;28;20300;-71
2022/03/04 07:40:06;;;;;;;35.60;21.83;;;;;;;1.42;70.80;102010.38;5071146;28;20348;-72
2022/03/04 07:42:31;;;;;;;36.23;22.27;;;;;;;1.59;70.89;102016.19;5071014;28;20313;-71
2022/03/04 07:44:57;;;;;;;34.87;22.20;;;;;;;1.75;69.76;102010.44;5072168;28;20928;-71
2022/03/04 07:47:22;;;;;;;36.80;21.37;;;;;;;1.87;69.06;102004.09;5072523;28;20043;-76
2022/03/04 07:49:48;;;;;;;34.57;20.83;;;;;;;2.03;68.34;102006.38;5072537;28;20039;-76
2022/03/04 07:52:13;;;;;;;35.97;21.87;;;;;;;2.23;69.14;102009.19;5072030;28;20042;-71
2022/03/04 07:54:39;;;;;;;36.13;21.27;;;;;;;2.44;67.64;102007.38;5071865;28;20036;-76
2022/03/04 07:57:04;;;;;;;35.67;21.37;;;;;;;2.60;66.77;102003.41;5071706;28;20035;-77
2022/03/04 07:59:30;;;;;;;33.70;21.20;;;;;;;2.72;65.96;101999.69;5072472;28;20081;-77
2022/03/04 08:01:55;;;;;;;33.57;21.80;;;;;;;2.84;65.33;102001.31;5072189;28;20032;-80
2022/03/04 08:04:20;;;;;;;32.50;21.33;;;;;;;2.93;65.46;102004.19;5072308;28;20464;-80
2022/03/04 08:06:46;;;;;;;33.83;21.13;;;;;;;3.07;64.90;102009.16;5072226;28;20067;-78
2022/03/04 08:09:11;;;;;;;33.17;21.40;;;;;;;3.29;64.53;102007.28;5071894;28;20162;-77
2022/03/04 08:11:37;;;;;;;32.57;20.63;;;;;;;3.39;63.18;102008.19;5072265;28;20681;-77
2022/03/04 08:14:02;;;;;;;35.47;21.77;;;;;;;3.47;62.87;101999.47;5071606;28;21439;-78
2022/03/04 08:16:29;;;;;;;41.53;30.27;;;;;;;3.62;62.99;102010.63;5071459;28;20036;-78
2022/03/04 08:18:55;;;;;;;32.17;20.63;;;;;;;3.67;62.05;102017.28;5070634;28;20039;-77
2022/03/04 08:21:21;;;;;;;39.27;26.10;;;;;;;3.83;61.81;102015.91;5069232;28;20658;-77
2022/03/04 08:23:46;;;;;;;32.97;21.60;;;;;;;3.99;62.00;102026.09;5069818;28;20173;-80
2022/03/04 08:26:11;;;;;;;33.53;21.93;;;;;;;4.19;60.98;102021.59;5071865;28;20166;-82
2022/03/04 08:28:37;;;;;;;36.33;28.27;;;;;;;4.37;61.23;102021.72;5071678;28;20111;-78
2022/03/04 08:31:10;;;;;;;35.63;27.13;;;;;;;4.51;60.04;102029.31;5071546;28;20051;-77
2022/03/04 08:33:36;;;;;;;45.07;40.27;;;;;;;4.68;59.81;102026.94;5069436;28;20028;-78
2022/03/04 08:36:03;;;;;;;32.27;21.27;;;;;;;4.82;59.51;102028.31;5071007;28;20481;-78
2022/03/04 08:38:29;;;;;;;31.17;20.67;;;;;;;4.92;58.05;102029.13;5071429;28;20118;-78
2022/03/04 08:40:54;;;;;;;32.40;20.50;;;;;;;5.10;58.84;102037.28;5066124;28;20547;-78
2022/03/04 08:43:20;;;;;;;30.37;18.40;;;;;;;5.15;57.24;102040.34;5052047;28;20040;-78
2022/03/04 08:45:46;;;;;;;33.73;21.13;;;;;;;5.22;57.58;102046.00;5071767;28;20058;-72
2022/03/04 08:48:12;;;;;;;30.67;20.73;;;;;;;5.35;57.08;102046.50;5072194;28;20202;-72
2022/03/04 08:50:37;;;;;;;30.77;19.30;;;;;;;5.52;56.67;102042.22;5071031;28;20551;-72
2022/03/04 08:53:03;;;;;;;31.27;19.83;;;;;;;5.61;56.12;102045.00;5075786;28;20158;-72
2022/03/04 08:55:30;;;;;;;31.00;20.17;;;;;;;5.66;55.96;102048.91;5076475;28;20119;-72
2022/03/04 08:57:57;;;;;;;32.57;19.87;;;;;;;5.78;54.89;102052.25;5076310;28;20039;-72
2022/03/04 09:00:23;;;;;;;31.30;19.70;;;;;;;5.88;54.85;102050.34;5075144;28;20032;-72
2022/03/04 09:02:48;;;;;;;31.33;20.10;;;;;;;6.00;54.75;102053.72;5076348;28;20246;-78
2022/03/04 09:05:14;;;;;;;31.87;20.20;;;;;;;6.19;54.75;102054.56;5076024;28;20040;-78
2022/03/04 09:07:40;;;;;;;30.07;19.03;;;;;;;6.32;54.78;102049.63;5071165;28;20600;-79
2022/03/04 09:10:06;;;;;;;29.73;19.53;;;;;;;6.45;53.88;102053.81;5075453;28;20024;-73
2022/03/04 09:12:32;;;;;;;29.93;20.13;;;;;;;6.49;53.44;102053.34;5076366;28;20038;-78
2022/03/04 09:14:57;;;;;;;29.73;20.63;;;;;;;6.41;52.80;102055.94;5075150;28;20037;-78
2022/03/04 09:17:23;;;;;;;31.57;21.40;;;;;;;6.54;52.69;102042.94;5076430;28;20395;-73
2022/03/04 09:19:49;;;;;;;31.27;19.87;;;;;;;6.69;52.39;102050.44;5075465;28;20122;-78
2022/03/04 09:22:14;;;;;;;33.47;24.13;;;;;;;6.82;51.86;102050.06;5075653;28;20404;-72
2022/03/04 09:24:40;;;;;;;29.23;19.20;;;;;;;6.74;51.91;102040.88;5075493;28;20040;-72
2022/03/04 09:27:06;;;;;;;30.30;20.33;;;;;;;6.97;52.06;102036.84;5075290;28;20310;-73
2022/03/04 09:29:32;;;;;;;29.57;20.07;;;;;;;7.24;51.97;102033.97;5074125;28;20035;-72
2022/03/04 09:31:57;;;;;;;32.10;20.13;;;;;;;7.20;50.20;102027.22;5074014;28;20483;-72
2022/03/04 09:34:23;;;;;;;29.33;19.13;;;;;;;7.13;49.89;102015.38;5074295;28;20179;-83
2022/03/04 09:36:48;;;;;;;28.27;18.97;;;;;;;7.15;50.00;102021.44;5075457;28;20059;-79
2022/03/04 09:39:14;;;;;;;28.93;19.23;;;;;;;7.32;50.43;102010.78;5076801;28;20093;-73
2022/03/04 09:41:43;;;;;;;31.57;19.20;;;;;;;7.62;49.40;102016.63;5074321;28;20035;-72
2022/03/04 09:44:09;;;;;;;28.33;19.13;;;;;;;7.56;49.11;102018.97;5073802;28;20027;-72
2022/03/04 09:46:34;;;;;;;30.30;19.20;;;;;;;7.83;48.98;102029.66;5075361;28;20055;-80
2022/03/04 09:48:59;;;;;;;28.30;19.20;;;;;;;7.86;48.65;102022.09;5074897;28;20053;-79
2022/03/04 09:51:25;;;;;;;27.80;18.80;;;;;;;8.08;48.13;102025.16;5075423;28;20028;-80
2022/03/04 09:53:52;;;;;;;28.93;18.33;;;;;;;8.20;46.98;102022.97;5074664;28;20047;-72
2022/03/04 09:56:20;;;;;;;26.87;18.23;;;;;;;8.39;47.83;102027.19;5075088;28;20037;-72
2022/03/04 09:58:47;;;;;;;28.73;19.50;;;;;;;8.56;47.24;102028.09;5075208;28;20130;-80
2022/03/04 10:01:14;;;;;;;29.03;19.47;;;;;;;8.78;46.27;102034.66;5075323;28;20137;-80
2022/03/04 10:03:39;;;;;;;27.83;18.50;;;;;;;8.93;45.88;102030.25;5068903;28;20090;-72
2022/03/04 10:06:05;;;;;;;28.53;18.07;;;;;;;9.12;45.98;102036.28;5074421;28;20029;-72
2022/03/04 10:08:46;;;;;;;27.90;19.07;;;;;;;9.29;46.33;102034.38;5074598;28;20124;-72
2022/03/04 10:11:22;;;;;;;27.87;18.60;;;;;;;9.26;44.80;102027.47;5074990;28;20028;-72
2022/03/04 10:13:51;;;;;;;27.97;18.67;;;;;;;9.47;45.26;102036.84;5075314;28;20123;-72
2022/03/04 10:16:33;;;;;;;26.50;18.73;;;;;;;9.67;45.32;102031.88;5074491;28;20028;-72
2022/03/04 10:19:14;;;;;;;27.53;18.73;;;;;;;9.74;45.51;102032.00;5070541;28;20035;-72
2022/03/04 10:22:00;;;;;;;26.50;17.87;;;;;;;9.88;44.42;102036.63;5075287;28;20411;-80
2022/03/04 10:24:30;;;;;;;26.50;17.67;;;;;;;9.77;43.24;102039.75;5074661;28;21041;-80
2022/03/04 10:27:00;;;;;;;26.93;18.83;;;;;;;10.03;43.88;102033.19;5074635;28;20027;-80
2022/03/04 10:29:26;;;;;;;28.70;18.83;;;;;;;10.15;42.73;102031.75;5074455;28;20024;-73
2022/03/04 10:32:09;;;;;;;28.23;19.07;;;;;;;10.42;44.26;102033.09;5058380;28;20119;-72
2022/03/04 10:34:59;;;;;;;34.37;29.90;;;;;;;10.66;42.85;102030.34;5074629;28;20253;-80
2022/03/04 10:37:59;;;;;;;38.63;34.50;;;;;;;11.13;43.12;102029.22;5074493;28;20028;-80
2022/03/04 10:40:32;;;;;;;27.30;18.97;;;;;;;11.36;42.04;102029.13;5073265;28;20023;-80
2022/03/04 10:43:07;;;;;;;28.87;21.17;;;;;;;11.78;42.52;102026.72;5073494;28;20024;-80
2022/03/04 10:45:41;;;;;;;27.43;18.93;;;;;;;11.61;40.04;102024.22;5072933;28;20028;-73
2022/03/04 10:48:15;;;;;;;26.52;19.40;;;;;;;11.85;41.05;102035.78;5072925;28;21473;-80
2022/03/04 10:50:42;;;;;;;26.00;18.87;;;;;;;11.94;39.65;102036.50;5072718;28;20117;-80
2022/03/04 10:53:11;;;;;;;25.03;17.37;;;;;;;11.79;38.88;102034.69;5072653;28;20031;-73
2022/03/04 10:55:57;;;;;;;26.30;18.67;;;;;;;11.69;39.11;102025.16;5072940;28;20451;-73
2022/03/04 10:58:25;;;;;;;26.90;18.23;;;;;;;11.70;40.05;102021.41;5072767;28;20082;-80
2022/03/04 11:00:58;;;;;;;26.00;18.23;;;;;;;11.73;38.85;102026.44;5072719;28;20468;-80
2022/03/04 11:03:25;;;;;;;26.30;18.80;;;;;;;11.78;39.61;102030.28;5072999;28;20040;-73
2022/03/04 11:05:53;;;;;;;26.10;18.27;;;;;;;12.07;38.44;102023.09;5072672;28;20031;-73
2022/03/04 11:08:20;;;;;;;27.83;18.10;;;;;;;12.07;38.02;102022.25;5072760;28;20047;-73
2022/03/04 11:10:46;;;;;;;27.77;18.53;;;;;;;12.07;38.50;102019.53;5072364;28;20026;-79